createdAt,value
2022-12-07T00:03:35.774Z,1.77
2022-12-07T00:08:41.888Z,2.04
2022-12-07T00:13:54.004Z,2.33
2022-12-07T00:18:58.383Z,2.53
2022-12-07T00:24:07.025Z,2.55
2022-12-07T00:29:17.146Z,2.50
2022-12-07T00:34:21.043Z,2.16
2022-12-07T00:39:22.762Z,1.96
2022-12-07T00:44:24.595Z,1.83
2022-12-07T00:49:28.524Z,1.74
2022-12-07T00:54:33.467Z,1.59
2022-12-07T00:59:36.956Z,1.50
2022-12-07T01:04:41.146Z,1.37
2022-12-07T01:09:45.126Z,1.28
2022-12-07T01:14:47.803Z,1.28
2022-12-07T01:19:49.551Z,1.42
2022-12-07T01:24:51.925Z,1.59
2022-12-07T01:29:57.026Z,1.75
2022-12-07T01:34:58.743Z,1.89
2022-12-07T01:40:06.517Z,2.17
2022-12-07T01:45:36.329Z,2.41
2022-12-07T01:50:40.964Z,2.52
2022-12-07T01:55:50.204Z,2.60
2022-12-07T02:00:55.252Z,2.62
2022-12-07T02:05:57.181Z,2.67
2022-12-07T02:11:03.911Z,2.65
2022-12-07T02:16:37.577Z,2.61
2022-12-07T02:21:54.494Z,2.62
2022-12-07T02:27:07.303Z,2.62
2022-12-07T02:32:11.780Z,2.65
2022-12-07T02:37:37.811Z,2.68
2022-12-07T02:42:50.656Z,2.71
2022-12-07T02:47:53.657Z,2.66
2022-12-07T02:52:57.447Z,2.58
2022-12-07T02:58:37.794Z,2.62
2022-12-07T03:03:41.180Z,2.67
2022-12-07T03:08:46.044Z,2.75
2022-12-07T03:14:04.661Z,2.80
2022-12-07T03:19:18.770Z,2.82
2022-12-07T03:24:30.132Z,2.79
2022-12-07T03:29:35.930Z,2.78
2022-12-07T03:35:02.697Z,2.82
2022-12-07T03:40:07.703Z,2.90
2022-12-07T03:45:13.009Z,2.98
2022-12-07T03:50:33.347Z,2.90
2022-12-07T03:55:37.172Z,2.71
2022-12-07T04:00:43.464Z,2.60
2022-12-07T04:05:50.137Z,2.54
2022-12-07T04:10:53.934Z,2.44
2022-12-07T04:16:03.014Z,2.29
2022-12-07T04:21:04.829Z,2.27
2022-12-07T04:26:06.608Z,2.25
2022-12-07T04:31:11.315Z,2.33
2022-12-07T04:36:15.599Z,2.40
2022-12-07T04:41:27.956Z,2.43
2022-12-07T04:46:31.861Z,2.42
2022-12-07T04:51:37.653Z,2.42
2022-12-07T04:56:40.780Z,2.34
2022-12-07T05:01:44.192Z,2.15
2022-12-07T05:06:45.956Z,2.03
2022-12-07T05:11:52.187Z,1.98
2022-12-07T05:17:00.707Z,1.98
2022-12-07T05:22:05.682Z,1.94
2022-12-07T05:27:09.574Z,1.87
2022-12-07T05:32:16.533Z,1.84
2022-12-07T05:37:18.182Z,1.79
2022-12-07T05:42:20.087Z,1.83
2022-12-07T05:47:21.892Z,1.96
2022-12-07T05:52:25.869Z,2.04
2022-12-07T05:57:32.944Z,2.21
2022-12-07T06:02:34.751Z,2.26
2022-12-07T06:07:38.790Z,2.21
2022-12-07T06:12:43.528Z,2.08
2022-12-07T06:17:47.435Z,2.04
2022-12-07T06:22:49.127Z,1.94
2022-12-07T06:27:53.752Z,1.87
2022-12-07T06:32:55.858Z,1.95
2022-12-07T06:37:57.903Z,2.05
2022-12-07T06:43:02.628Z,2.13
2022-12-07T06:48:09.291Z,2.12
2022-12-07T06:53:13.978Z,2.01
2022-12-07T06:58:18.656Z,2.09
2022-12-07T07:03:20.341Z,2.10
2022-12-07T07:08:24.537Z,1.99
2022-12-07T07:13:27.260Z,1.98
2022-12-07T07:18:29.535Z,2.04
2022-12-07T07:23:31.540Z,2.16
2022-12-07T07:28:33.395Z,2.17
2022-12-07T07:33:35.176Z,2.20
2022-12-07T07:38:39.050Z,2.25
2022-12-07T07:43:40.748Z,2.27
2022-12-07T07:48:44.706Z,2.34
2022-12-07T07:53:51.655Z,2.41
2022-12-07T07:58:56.111Z,2.45
2022-12-07T08:03:59.846Z,2.41
2022-12-07T08:09:03.882Z,2.36
2022-12-07T08:14:08.204Z,2.24
2022-12-07T08:19:13.395Z,2.27
2022-12-07T08:24:17.848Z,2.37
2022-12-07T08:29:19.775Z,2.39
2022-12-07T08:34:27.333Z,2.37
2022-12-07T08:39:31.841Z,2.40
2022-12-07T08:44:39.002Z,2.25
2022-12-07T08:49:49.482Z,2.25
2022-12-07T08:54:52.341Z,2.31
2022-12-07T08:59:59.255Z,2.52
2022-12-07T09:05:01.260Z,2.67
2022-12-07T09:10:07.198Z,2.81
2022-12-07T09:15:11.777Z,2.72
2022-12-07T09:20:16.705Z,2.77
2022-12-07T09:25:20.750Z,3.02
2022-12-07T09:30:23.552Z,3.34
2022-12-07T09:35:25.751Z,3.54
2022-12-07T09:40:29.820Z,3.61
2022-12-07T09:45:39.972Z,3.79
2022-12-07T09:50:45.660Z,3.78
2022-12-07T09:55:48.350Z,3.74
2022-12-07T10:00:55.536Z,3.70
2022-12-07T10:06:01.557Z,3.70
2022-12-07T10:11:11.482Z,3.70
2022-12-07T10:16:25.393Z,3.79
2022-12-07T10:21:29.285Z,3.99
2022-12-07T10:26:40.093Z,4.28
2022-12-07T10:31:47.299Z,4.38
2022-12-07T10:36:51.360Z,4.41
2022-12-07T10:42:04.185Z,4.45
2022-12-07T10:47:24.331Z,4.49
2022-12-07T10:52:46.499Z,4.50
2022-12-07T10:58:35.425Z,4.72
2022-12-07T11:03:56.903Z,4.99
2022-12-07T11:10:10.844Z,4.94
2022-12-07T11:15:16.556Z,4.57
2022-12-07T11:20:44.459Z,4.51
2022-12-07T11:26:28.739Z,4.61
2022-12-07T11:31:50.066Z,4.61
2022-12-07T11:36:55.932Z,4.56
2022-12-07T11:42:13.434Z,4.51
2022-12-07T11:47:22.510Z,4.28
2022-12-07T11:52:45.281Z,3.98
2022-12-07T11:57:51.447Z,4.00
2022-12-07T12:03:09.220Z,4.23
2022-12-07T12:14:36.772Z,4.47
2022-12-07T12:20:00.959Z,4.42
2022-12-07T12:25:08.643Z,4.47
2022-12-07T12:30:46.628Z,4.43
2022-12-07T12:36:28.623Z,4.34
2022-12-07T12:41:36.411Z,4.26
2022-12-07T12:46:42.075Z,4.36
2022-12-07T12:51:51.553Z,4.73
2022-12-07T12:57:11.045Z,4.67
2022-12-07T13:02:32.195Z,4.44
2022-12-07T13:07:52.459Z,4.26
2022-12-07T13:13:15.014Z,4.15
2022-12-07T13:18:26.803Z,3.99
2022-12-07T13:23:51.053Z,3.91
2022-12-07T13:29:14.292Z,3.95
2022-12-07T13:34:31.430Z,4.14
2022-12-07T13:39:46.275Z,4.24
2022-12-07T13:44:50.648Z,4.61
2022-12-07T13:49:55.127Z,4.78
2022-12-07T13:55:07.026Z,4.73
2022-12-07T14:00:20.410Z,4.51
2022-12-07T14:05:36.328Z,4.41
2022-12-07T14:10:54.271Z,4.34
2022-12-07T14:15:59.433Z,4.20
2022-12-07T14:21:24.329Z,4.07
2022-12-07T14:26:28.232Z,3.98
2022-12-07T14:31:32.134Z,3.83
2022-12-07T14:36:39.632Z,3.74
2022-12-07T14:41:53.686Z,3.86
2022-12-07T14:57:49.760Z,3.67
2022-12-07T15:02:52.401Z,3.63
2022-12-07T15:07:54.183Z,3.62
2022-12-07T15:13:22.972Z,3.60
2022-12-07T15:18:27.898Z,3.50
2022-12-07T15:23:31.366Z,3.44
2022-12-07T15:28:38.690Z,3.25
2022-12-07T15:33:41.973Z,3.09
2022-12-07T15:39:12.738Z,2.97
2022-12-07T15:44:31.107Z,2.75
2022-12-07T15:49:35.572Z,2.53
2022-12-07T15:54:40.536Z,2.51
2022-12-07T15:59:44.642Z,2.28
2022-12-07T16:04:46.428Z,2.12
2022-12-07T16:09:52.867Z,2.01
2022-12-07T16:14:56.230Z,1.88
2022-12-07T16:19:58.302Z,1.77
2022-12-07T16:25:03.093Z,1.72
2022-12-07T16:30:06.917Z,1.69
2022-12-07T16:35:14.350Z,1.67
2022-12-07T16:40:16.054Z,1.63
2022-12-07T16:45:21.206Z,1.71
2022-12-07T16:50:26.100Z,1.80
2022-12-07T16:55:30.489Z,1.90
2022-12-07T17:00:35.404Z,1.97
2022-12-07T17:05:42.327Z,2.03
2022-12-07T17:10:45.120Z,2.06
2022-12-07T17:15:59.631Z,2.11
2022-12-07T17:21:06.061Z,2.12
2022-12-07T17:26:16.724Z,2.09
2022-12-07T17:31:20.136Z,2.03
2022-12-07T17:36:25.828Z,1.91
2022-12-07T17:41:48.815Z,1.83
2022-12-07T17:46:57.677Z,1.79
2022-12-07T17:52:18.052Z,1.72
2022-12-07T17:57:22.013Z,1.64
2022-12-07T18:02:23.795Z,1.64
2022-12-07T18:07:27.850Z,1.62
2022-12-07T18:12:30.488Z,1.55
2022-12-07T18:17:36.866Z,1.47
2022-12-07T18:22:40.030Z,1.40
2022-12-07T18:27:47.719Z,1.39
2022-12-07T18:32:49.427Z,1.41
2022-12-07T18:37:53.166Z,1.41
2022-12-07T18:42:59.452Z,1.44
2022-12-07T18:48:01.046Z,1.48
2022-12-07T18:53:10.290Z,1.53
2022-12-07T18:58:14.432Z,1.54
2022-12-07T19:03:17.002Z,1.58
2022-12-07T19:08:21.032Z,1.59
2022-12-07T19:13:22.768Z,1.58
2022-12-07T19:18:25.352Z,1.60
2022-12-07T19:23:27.087Z,1.57
2022-12-07T19:28:33.384Z,1.53
2022-12-07T19:33:37.504Z,1.52
2022-12-07T19:38:42.675Z,1.54
2022-12-07T19:43:44.520Z,1.54
2022-12-07T19:48:46.272Z,1.55
2022-12-07T19:53:49.126Z,1.58
2022-12-07T19:58:52.262Z,1.58
2022-12-07T20:03:56.637Z,1.55
2022-12-07T20:09:00.433Z,1.54
2022-12-07T20:14:11.823Z,1.53
2022-12-07T20:19:19.347Z,1.55
2022-12-07T20:24:25.667Z,1.59
2022-12-07T20:29:29.984Z,1.64
2022-12-07T20:34:31.814Z,1.65
2022-12-07T20:39:36.101Z,1.65
2022-12-07T20:44:42.370Z,1.70
2022-12-07T20:49:48.308Z,1.87
2022-12-07T20:54:50.863Z,1.79
2022-12-07T20:59:54.621Z,1.72
2022-12-07T21:05:03.796Z,1.71
2022-12-07T21:10:06.869Z,1.64
2022-12-07T21:15:10.947Z,1.88
2022-12-07T21:20:18.668Z,1.72
2022-12-07T21:25:20.361Z,1.61
2022-12-07T21:30:22.109Z,1.51
2022-12-07T21:35:26.110Z,1.41
2022-12-07T21:40:27.897Z,1.28
2022-12-07T21:45:29.645Z,1.17
2022-12-07T21:50:39.894Z,1.05
2022-12-07T21:55:45.320Z,0.95
2022-12-07T22:00:47.005Z,0.82
2022-12-07T22:05:49.815Z,0.75
2022-12-07T22:10:53.976Z,0.69
2022-12-07T22:15:58.043Z,0.68
2022-12-07T22:21:01.951Z,0.72
2022-12-07T22:26:10.967Z,0.81
2022-12-07T22:31:17.797Z,0.90
2022-12-07T22:36:23.167Z,1.03
2022-12-07T22:41:28.020Z,1.10
2022-12-07T22:46:36.067Z,1.21
2022-12-07T22:51:44.637Z,1.24
2022-12-07T22:56:46.357Z,1.27
2022-12-07T23:01:48.104Z,1.29
2022-12-07T23:06:50.020Z,1.36
2022-12-07T23:12:12.697Z,1.41
2022-12-07T23:17:14.434Z,1.37
2022-12-07T23:22:16.171Z,1.35
2022-12-07T23:27:20.093Z,1.30
2022-12-07T23:32:24.059Z,1.29
2022-12-07T23:37:25.815Z,1.24
2022-12-07T23:42:32.768Z,1.12
2022-12-07T23:47:35.047Z,1.02
2022-12-07T23:52:41.446Z,0.97
2022-12-07T23:57:45.830Z,0.90
